createdAt,value
2023-05-25T00:00:32.375Z,6.80
2023-05-25T00:01:32.583Z,6.90
2023-05-25T00:02:32.548Z,6.90
2023-05-25T00:03:32.954Z,6.90
2023-05-25T00:04:32.506Z,6.90
2023-05-25T00:05:32.440Z,6.60
2023-05-25T00:06:32.466Z,6.70
2023-05-25T00:07:32.563Z,6.40
2023-05-25T00:08:32.483Z,6.50
2023-05-25T00:09:32.492Z,8.00
2023-05-25T00:10:32.544Z,7.60
2023-05-25T00:11:32.522Z,6.20
2023-05-25T00:12:32.539Z,8.20
2023-05-25T00:13:32.645Z,7.20
2023-05-25T00:14:32.567Z,6.30
2023-05-25T00:15:32.582Z,6.60
2023-05-25T00:16:32.613Z,6.70
2023-05-25T00:17:32.638Z,6.80
2023-05-25T00:18:32.826Z,6.80
2023-05-25T00:19:32.635Z,7.50
2023-05-25T00:20:32.695Z,7.00
2023-05-25T00:21:32.664Z,6.20
2023-05-25T00:22:32.676Z,6.50
2023-05-25T00:23:32.690Z,6.50
2023-05-25T00:24:32.816Z,6.40
2023-05-25T00:25:32.721Z,6.40
2023-05-25T00:26:32.773Z,6.60
2023-05-25T00:27:32.738Z,6.80
2023-05-25T00:28:32.758Z,6.40
2023-05-25T00:29:32.776Z,6.70
2023-05-25T00:30:32.883Z,7.10
2023-05-25T00:31:32.978Z,7.00
2023-05-25T00:32:32.832Z,6.40
2023-05-25T00:33:32.845Z,6.60
2023-05-25T00:34:32.849Z,6.40
2023-05-25T00:35:32.863Z,6.20
2023-05-25T00:36:32.869Z,6.40
2023-05-25T00:37:32.878Z,7.30
2023-05-25T00:38:32.902Z,6.20
2023-05-25T00:39:32.916Z,6.90
2023-05-25T00:40:32.924Z,6.40
2023-05-25T00:41:32.933Z,8.00
2023-05-25T00:42:32.992Z,6.80
2023-05-25T00:43:32.968Z,6.60
2023-05-25T00:44:32.977Z,7.20
2023-05-25T00:45:32.997Z,7.00
2023-05-25T00:46:33.036Z,6.80
2023-05-25T00:47:33.132Z,6.20
2023-05-25T00:48:33.037Z,7.10
2023-05-25T00:49:33.045Z,6.80
2023-05-25T00:50:33.068Z,7.50
2023-05-25T00:51:33.073Z,6.60
2023-05-25T00:52:33.084Z,8.30
2023-05-25T00:53:33.208Z,7.00
2023-05-25T00:54:33.121Z,7.60
2023-05-25T00:55:33.140Z,6.30
2023-05-25T00:56:33.161Z,7.10
2023-05-25T00:57:33.154Z,7.00
2023-05-25T00:58:33.208Z,7.40
2023-05-25T00:59:33.280Z,7.90
2023-05-25T01:00:33.200Z,7.30
2023-05-25T01:01:33.264Z,6.60
2023-05-25T01:02:33.273Z,7.30
2023-05-25T01:03:33.319Z,6.30
2023-05-25T01:04:33.258Z,7.40
2023-05-25T01:05:33.264Z,7.10
2023-05-25T01:06:33.303Z,6.70
2023-05-25T01:07:33.302Z,6.70
2023-05-25T01:08:33.314Z,6.90
2023-05-25T01:09:33.323Z,7.70
2023-05-25T01:10:33.365Z,7.50
2023-05-25T01:11:33.456Z,7.40
2023-05-25T01:12:33.374Z,7.00
2023-05-25T01:13:33.374Z,7.40
2023-05-25T01:14:33.879Z,8.20
2023-05-25T01:15:33.398Z,7.00
2023-05-25T01:16:33.466Z,6.30
2023-05-25T01:17:33.542Z,9.60
2023-05-25T01:18:33.449Z,7.10
2023-05-25T01:19:33.466Z,7.40
2023-05-25T01:20:33.498Z,7.00
2023-05-25T01:21:33.483Z,6.50
2023-05-25T01:22:33.600Z,6.30
2023-05-25T01:23:33.513Z,7.10
2023-05-25T01:24:33.554Z,7.10
2023-05-25T01:25:33.538Z,7.10
2023-05-25T01:26:33.552Z,6.80
2023-05-25T01:27:33.563Z,7.10
2023-05-25T01:28:33.586Z,7.30
2023-05-25T01:29:33.600Z,7.30
2023-05-25T01:30:33.638Z,7.20
2023-05-25T01:31:33.683Z,6.50
2023-05-25T01:32:33.711Z,7.00
2023-05-25T01:33:33.755Z,6.80
2023-05-25T01:34:33.669Z,8.20
2023-05-25T01:35:33.673Z,7.90
2023-05-25T01:36:33.700Z,6.90
2023-05-25T01:37:33.709Z,7.50
2023-05-25T01:38:33.823Z,6.90
2023-05-25T01:39:33.743Z,7.10
2023-05-25T01:40:33.750Z,8.00
2023-05-25T01:41:33.763Z,7.10
2023-05-25T01:42:33.782Z,7.30
2023-05-25T01:43:33.788Z,8.70
2023-05-25T01:44:33.899Z,6.60
2023-05-25T01:45:33.809Z,6.70
2023-05-25T01:46:33.989Z,8.20
2023-05-25T01:47:33.886Z,6.60
2023-05-25T01:48:33.855Z,8.30
2023-05-25T01:49:33.980Z,7.60
2023-05-25T01:50:33.878Z,7.60
2023-05-25T01:51:33.892Z,7.00
2023-05-25T01:52:33.974Z,8.30
2023-05-25T01:53:33.947Z,7.00
2023-05-25T01:54:33.933Z,7.30
2023-05-25T01:55:34.045Z,7.50
2023-05-25T01:56:33.971Z,8.00
2023-05-25T01:57:33.973Z,8.10
2023-05-25T01:58:34.027Z,7.20
2023-05-25T01:59:33.997Z,7.60
2023-05-25T02:00:34.012Z,8.60
2023-05-25T02:01:34.131Z,8.60
2023-05-25T02:02:34.103Z,8.80
2023-05-25T02:03:34.054Z,7.80
2023-05-25T02:04:34.112Z,7.90
2023-05-25T02:05:34.090Z,7.30
2023-05-25T02:06:34.096Z,6.70
2023-05-25T02:07:34.211Z,7.60
2023-05-25T02:08:34.134Z,7.40
2023-05-25T02:09:34.144Z,8.60
2023-05-25T02:10:34.166Z,8.20
2023-05-25T02:11:34.175Z,7.20
2023-05-25T02:12:34.182Z,7.60
2023-05-25T02:13:34.193Z,7.40
2023-05-25T02:14:34.208Z,7.60
2023-05-25T02:15:34.275Z,7.60
2023-05-25T02:16:34.359Z,7.60
2023-05-25T02:17:34.255Z,8.00
2023-05-25T02:18:34.425Z,6.60
2023-05-25T02:19:34.375Z,7.00
2023-05-25T02:20:34.364Z,7.90
2023-05-25T02:21:34.310Z,8.30
2023-05-25T02:22:34.328Z,6.50
2023-05-25T02:23:34.338Z,7.90
2023-05-25T02:24:34.354Z,7.50
2023-05-25T02:25:34.461Z,7.60
2023-05-25T02:26:34.381Z,7.50
2023-05-25T02:27:34.385Z,7.20
2023-05-25T02:28:34.407Z,6.70
2023-05-25T02:29:34.417Z,7.50
2023-05-25T02:30:34.428Z,7.80
2023-05-25T02:31:34.588Z,6.90
2023-05-25T02:32:34.468Z,6.60
2023-05-25T02:33:34.490Z,7.10
2023-05-25T02:34:34.502Z,7.40
2023-05-25T02:35:34.505Z,7.80
2023-05-25T02:36:34.509Z,8.20
2023-05-25T02:37:34.630Z,7.90
2023-05-25T02:38:34.535Z,8.10
2023-05-25T02:39:34.550Z,7.00
2023-05-25T02:40:34.572Z,7.60
2023-05-25T02:41:34.582Z,7.40
2023-05-25T02:42:34.701Z,6.80
2023-05-25T02:43:34.604Z,6.60
2023-05-25T02:44:34.618Z,7.60
2023-05-25T02:45:34.631Z,7.30
2023-05-25T02:46:34.706Z,6.80
2023-05-25T02:47:34.847Z,9.80
2023-05-25T02:48:34.689Z,7.50
2023-05-25T02:49:34.690Z,7.20
2023-05-25T02:50:34.773Z,8.60
2023-05-25T02:51:34.723Z,7.60
2023-05-25T02:52:34.737Z,7.80
2023-05-25T02:53:34.839Z,6.90
2023-05-25T02:54:34.763Z,7.70
2023-05-25T02:55:34.765Z,8.30
2023-05-25T02:56:34.786Z,6.80
2023-05-25T02:57:34.801Z,6.40
2023-05-25T02:58:35.319Z,6.80
2023-05-25T02:59:34.822Z,7.10
2023-05-25T03:00:34.874Z,6.90
2023-05-25T03:01:35.114Z,7.60
2023-05-25T03:02:34.887Z,7.10
2023-05-25T03:03:35.058Z,7.20
2023-05-25T03:04:34.887Z,8.30
2023-05-25T03:05:34.914Z,6.70
2023-05-25T03:06:35.097Z,6.60
2023-05-25T03:07:34.935Z,6.80
2023-05-25T03:08:34.952Z,6.40
2023-05-25T03:09:34.965Z,7.90
2023-05-25T03:10:34.976Z,7.40
2023-05-25T03:11:34.990Z,9.40
2023-05-25T03:12:34.994Z,7.60
2023-05-25T03:13:35.012Z,6.90
2023-05-25T03:14:35.032Z,7.60
2023-05-25T03:15:35.036Z,6.50
2023-05-25T03:16:35.077Z,7.00
2023-05-25T03:17:35.099Z,6.20
2023-05-25T03:18:35.095Z,7.10
2023-05-25T03:19:35.101Z,6.50
2023-05-25T03:20:35.320Z,6.10
2023-05-25T03:21:35.126Z,6.50
2023-05-25T03:22:35.600Z,7.10
2023-05-25T03:23:35.146Z,7.60
2023-05-25T03:24:35.799Z,5.90
2023-05-25T03:25:35.162Z,6.80
2023-05-25T03:26:35.275Z,6.60
2023-05-25T03:27:35.620Z,6.80
2023-05-25T03:28:35.205Z,6.70
2023-05-25T03:29:35.216Z,6.40
2023-05-25T03:30:35.433Z,7.40
2023-05-25T03:31:35.303Z,7.20
2023-05-25T03:32:35.430Z,7.80
2023-05-25T03:33:35.270Z,6.10
2023-05-25T03:34:35.328Z,7.00
2023-05-25T03:35:35.299Z,6.90
2023-05-25T03:36:35.319Z,6.10
2023-05-25T03:37:35.333Z,6.90
2023-05-25T03:38:35.458Z,7.50
2023-05-25T03:39:35.353Z,7.10
2023-05-25T03:40:35.365Z,6.20
2023-05-25T03:41:35.383Z,6.40
2023-05-25T03:42:35.394Z,5.80
2023-05-25T03:43:35.407Z,6.00
2023-05-25T03:44:35.531Z,7.30
2023-05-25T03:45:35.433Z,6.20
2023-05-25T03:46:35.540Z,5.80
2023-05-25T03:47:35.520Z,6.00
2023-05-25T03:48:35.477Z,6.80
2023-05-25T03:49:35.486Z,7.20
2023-05-25T03:50:35.601Z,6.60
2023-05-25T03:51:35.516Z,6.60
2023-05-25T03:52:35.532Z,5.90
2023-05-25T03:53:35.542Z,6.60
2023-05-25T03:54:35.577Z,6.60
2023-05-25T03:55:35.569Z,6.20
2023-05-25T03:56:35.682Z,6.30
2023-05-25T03:57:35.598Z,7.10
2023-05-25T03:58:35.612Z,7.00
2023-05-25T03:59:35.622Z,7.20
2023-05-25T04:00:35.644Z,7.90
2023-05-25T04:01:35.752Z,6.20
2023-05-25T04:02:35.720Z,6.80
2023-05-25T04:03:36.088Z,5.60
2023-05-25T04:04:35.698Z,7.30
2023-05-25T04:05:35.711Z,6.20
2023-05-25T04:06:35.717Z,5.50
2023-05-25T04:07:35.831Z,6.20
2023-05-25T04:08:35.742Z,6.20
2023-05-25T04:09:35.759Z,6.20
2023-05-25T04:10:35.929Z,7.10
2023-05-25T04:11:35.782Z,6.30
2023-05-25T04:12:35.804Z,5.80
2023-05-25T04:13:35.920Z,5.80
2023-05-25T04:14:35.826Z,5.70
2023-05-25T04:15:35.836Z,5.90
2023-05-25T04:16:35.903Z,6.00
2023-05-25T04:17:37.517Z,5.40
2023-05-25T04:18:35.981Z,5.60
2023-05-25T04:19:35.893Z,6.00
2023-05-25T04:20:36.044Z,6.10
2023-05-25T04:21:35.918Z,6.40
2023-05-25T04:22:35.936Z,6.40
2023-05-25T04:23:35.945Z,6.10
2023-05-25T04:24:36.061Z,5.50
2023-05-25T04:25:35.976Z,6.00
2023-05-25T04:26:36.010Z,6.30
2023-05-25T04:27:36.003Z,6.30
2023-05-25T04:28:36.008Z,6.30
2023-05-25T04:29:36.127Z,7.50
2023-05-25T04:30:36.048Z,5.50
2023-05-25T04:31:36.063Z,5.90
2023-05-25T04:32:36.111Z,7.30
2023-05-25T04:33:36.098Z,5.90
2023-05-25T04:34:36.107Z,6.20
2023-05-25T04:35:36.112Z,6.40
2023-05-25T04:36:36.136Z,5.70
2023-05-25T04:37:36.137Z,5.50
2023-05-25T04:38:36.155Z,6.80
2023-05-25T04:39:36.162Z,7.20
2023-05-25T04:40:36.253Z,5.30
2023-05-25T04:41:36.300Z,5.80
2023-05-25T04:42:36.236Z,6.20
2023-05-25T04:43:36.234Z,5.90
2023-05-25T04:44:36.242Z,6.80
2023-05-25T04:45:36.295Z,6.50
2023-05-25T04:46:36.282Z,5.60
2023-05-25T04:47:36.320Z,6.10
2023-05-25T04:48:36.293Z,6.90
2023-05-25T04:49:36.307Z,6.40
2023-05-25T04:50:36.338Z,6.10
2023-05-25T04:51:36.336Z,5.30
2023-05-25T04:52:36.454Z,6.30
2023-05-25T04:53:36.367Z,6.60
2023-05-25T04:54:36.380Z,6.10
2023-05-25T04:55:36.389Z,5.90
2023-05-25T04:56:36.407Z,5.20
2023-05-25T04:57:36.414Z,5.70
2023-05-25T04:58:36.555Z,6.10
2023-05-25T04:59:36.447Z,6.10
2023-05-25T05:00:36.492Z,6.20
2023-05-25T05:01:36.492Z,6.00
2023-05-25T05:02:36.511Z,5.70
2023-05-25T05:03:36.615Z,7.70
2023-05-25T05:04:36.613Z,6.40
2023-05-25T05:05:36.529Z,6.80
2023-05-25T05:06:36.570Z,6.70
2023-05-25T05:07:36.563Z,6.30
2023-05-25T05:08:36.576Z,6.20
2023-05-25T05:09:36.583Z,5.30
2023-05-25T05:10:36.596Z,6.10
2023-05-25T05:11:36.611Z,5.90
2023-05-25T05:12:36.614Z,6.10
2023-05-25T05:13:36.634Z,5.20
2023-05-25T05:14:36.666Z,6.00
2023-05-25T05:15:36.762Z,6.80
2023-05-25T05:16:36.713Z,6.40
2023-05-25T05:17:36.772Z,5.80
2023-05-25T05:18:36.698Z,6.10
2023-05-25T05:19:36.715Z,6.50
2023-05-25T05:20:36.912Z,6.10
2023-05-25T05:21:36.745Z,5.20
2023-05-25T05:22:36.763Z,6.30
2023-05-25T05:23:36.768Z,5.20
2023-05-25T05:24:36.784Z,5.10
2023-05-25T05:25:36.796Z,6.00
2023-05-25T05:26:48.298Z,7.40
2023-05-25T05:27:36.829Z,5.80
2023-05-25T05:28:36.832Z,7.30
2023-05-25T05:29:36.850Z,6.90
2023-05-25T05:30:36.957Z,5.90
2023-05-25T05:31:36.978Z,6.80
2023-05-25T05:32:36.947Z,6.50
2023-05-25T05:33:36.919Z,5.50
2023-05-25T05:34:36.919Z,5.90
2023-05-25T05:35:36.932Z,6.20
2023-05-25T05:36:48.844Z,5.90
2023-05-25T05:37:37.063Z,5.10
2023-05-25T05:38:39.317Z,6.50
2023-05-25T05:39:36.973Z,6.10
2023-05-25T05:40:36.993Z,5.20
2023-05-25T05:41:37.025Z,5.10
2023-05-25T05:42:37.018Z,5.30
2023-05-25T05:43:37.136Z,5.90
2023-05-25T05:44:37.063Z,7.70
2023-05-25T05:45:37.064Z,5.70
2023-05-25T05:46:37.134Z,7.00
2023-05-25T05:47:37.145Z,6.60
2023-05-25T05:48:37.204Z,7.30
2023-05-25T05:49:37.123Z,6.30
2023-05-25T05:50:37.864Z,5.90
2023-05-25T05:51:37.146Z,6.40
2023-05-25T05:52:37.158Z,7.30
2023-05-25T05:53:37.180Z,5.50
2023-05-25T05:54:37.285Z,6.20
2023-05-25T05:55:37.213Z,5.40
2023-05-25T05:56:37.218Z,6.30
2023-05-25T05:57:37.222Z,5.30
2023-05-25T05:58:37.240Z,5.70
2023-05-25T05:59:37.250Z,5.50
2023-05-25T06:00:37.266Z,5.70
2023-05-25T06:01:37.280Z,5.90
2023-05-25T06:02:39.401Z,6.20
2023-05-25T06:03:37.347Z,5.30
2023-05-25T06:04:37.317Z,5.90
2023-05-25T06:05:37.391Z,5.50
2023-05-25T06:06:37.450Z,6.10
2023-05-25T06:07:37.357Z,6.70
2023-05-25T06:08:37.568Z,5.60
2023-05-25T06:09:37.391Z,5.80
2023-05-25T06:10:37.395Z,5.90
2023-05-25T06:11:37.431Z,6.00
2023-05-25T06:12:37.466Z,5.80
2023-05-25T06:13:37.430Z,5.80
2023-05-25T06:14:37.457Z,6.40
2023-05-25T06:15:37.459Z,6.10
2023-05-25T06:16:37.516Z,5.30
2023-05-25T06:17:37.599Z,5.30
2023-05-25T06:18:37.638Z,7.60
2023-05-25T06:19:37.521Z,6.30
2023-05-25T06:20:37.640Z,5.40
2023-05-25T06:21:37.552Z,5.10
2023-05-25T06:22:37.553Z,5.00
2023-05-25T06:23:37.713Z,5.80
2023-05-25T06:24:37.582Z,5.20
2023-05-25T06:25:37.589Z,5.30
2023-05-25T06:26:37.615Z,6.00
2023-05-25T06:27:37.629Z,6.30
2023-05-25T06:28:37.737Z,5.80
2023-05-25T06:29:37.648Z,5.60
2023-05-25T06:30:37.669Z,5.90
2023-05-25T06:31:37.689Z,5.20
2023-05-25T06:32:37.713Z,6.60
2023-05-25T06:33:37.804Z,6.40
2023-05-25T06:34:38.345Z,6.50
2023-05-25T06:35:37.728Z,5.60
2023-05-25T06:36:37.745Z,5.10
2023-05-25T06:37:37.749Z,4.70
2023-05-25T06:38:37.768Z,6.40
2023-05-25T06:39:37.883Z,6.40
2023-05-25T06:40:37.790Z,5.40
2023-05-25T06:41:37.809Z,6.70
2023-05-25T06:42:37.837Z,6.20
2023-05-25T06:43:37.832Z,5.70
2023-05-25T06:44:37.842Z,6.30
2023-05-25T06:45:37.954Z,5.40
2023-05-25T06:46:37.927Z,5.30
2023-05-25T06:47:37.916Z,6.50
2023-05-25T06:48:37.901Z,6.40
2023-05-25T06:49:37.910Z,5.40
2023-05-25T06:50:37.966Z,5.70
2023-05-25T06:51:37.942Z,6.20
2023-05-25T06:52:37.949Z,5.90
2023-05-25T06:53:37.969Z,4.90
2023-05-25T06:54:37.981Z,4.50
2023-05-25T06:55:37.996Z,5.60
2023-05-25T06:56:38.003Z,5.60
2023-05-25T06:57:38.026Z,5.00
2023-05-25T06:58:38.036Z,5.10
2023-05-25T06:59:38.047Z,5.70
2023-05-25T07:00:38.056Z,5.00
2023-05-25T07:01:38.118Z,5.50
2023-05-25T07:02:38.132Z,6.50
2023-05-25T07:03:38.210Z,5.10
2023-05-25T07:04:38.189Z,5.20
2023-05-25T07:05:38.329Z,5.70
2023-05-25T07:06:38.171Z,5.00
2023-05-25T07:07:38.156Z,5.40
2023-05-25T07:08:38.177Z,4.90
2023-05-25T07:09:38.272Z,8.00
2023-05-25T07:10:38.199Z,5.50
2023-05-25T07:11:38.212Z,4.70
2023-05-25T07:12:38.226Z,6.10
2023-05-25T07:13:38.240Z,5.30
2023-05-25T07:14:38.246Z,6.90
2023-05-25T07:15:38.357Z,4.70
2023-05-25T07:16:38.385Z,6.00
2023-05-25T07:17:38.339Z,5.10
2023-05-25T07:18:38.309Z,5.40
2023-05-25T07:19:38.318Z,5.20
2023-05-25T07:20:38.413Z,4.50
2023-05-25T07:21:38.344Z,6.00
2023-05-25T07:22:38.373Z,4.80
2023-05-25T07:23:38.412Z,4.70
2023-05-25T07:24:38.387Z,5.00
2023-05-25T07:25:38.405Z,5.50
2023-05-25T07:26:38.408Z,5.70
2023-05-25T07:27:38.418Z,4.80
2023-05-25T07:28:38.442Z,4.80
2023-05-25T07:29:38.455Z,5.80
2023-05-25T07:30:38.459Z,5.10
2023-05-25T07:31:38.527Z,5.20
2023-05-25T07:32:38.562Z,4.70
2023-05-25T07:33:38.597Z,5.70
2023-05-25T07:34:38.521Z,4.60
2023-05-25T07:35:38.520Z,5.90
2023-05-25T07:36:38.537Z,4.70
2023-05-25T07:37:38.562Z,5.70
2023-05-25T07:38:38.585Z,5.10
2023-05-25T07:39:38.675Z,5.00
2023-05-25T07:40:38.587Z,6.40
2023-05-25T07:41:38.607Z,6.40
2023-05-25T07:42:38.614Z,5.60
2023-05-25T07:43:38.635Z,5.80
2023-05-25T07:44:38.647Z,5.00
2023-05-25T07:45:38.776Z,6.20
2023-05-25T07:46:38.709Z,4.90
2023-05-25T07:47:38.712Z,5.40
2023-05-25T07:48:38.705Z,6.30
2023-05-25T07:49:38.716Z,5.80
2023-05-25T07:50:38.737Z,4.90
2023-05-25T07:51:38.743Z,6.20
2023-05-25T07:52:38.754Z,5.80
2023-05-25T07:53:38.772Z,4.90
2023-05-25T07:54:38.814Z,5.00
2023-05-25T07:55:38.885Z,6.00
2023-05-25T07:56:38.817Z,5.40
2023-05-25T07:57:38.828Z,5.20
2023-05-25T07:58:38.836Z,4.90
2023-05-25T07:59:38.839Z,4.70
2023-05-25T08:00:38.957Z,5.70
2023-05-25T08:01:38.930Z,4.70
2023-05-25T08:02:38.957Z,5.00
2023-05-25T08:03:49.216Z,4.90
2023-05-25T08:04:39.042Z,4.80
2023-05-25T08:05:38.919Z,5.30
2023-05-25T08:06:39.037Z,5.40
2023-05-25T08:07:40.665Z,5.20
2023-05-25T08:08:38.973Z,4.80
2023-05-25T08:09:38.987Z,5.80
2023-05-25T08:10:39.010Z,5.50
2023-05-25T08:11:39.105Z,5.20
2023-05-25T08:12:49.027Z,5.90
2023-05-25T08:13:39.046Z,5.10
2023-05-25T08:14:39.041Z,4.90
2023-05-25T08:15:39.046Z,4.30
2023-05-25T08:16:39.224Z,4.70
2023-05-25T08:17:39.120Z,4.80
2023-05-25T08:18:39.093Z,6.30
2023-05-25T08:19:39.112Z,5.40
2023-05-25T08:20:39.193Z,5.20
2023-05-25T08:21:39.130Z,7.80
2023-05-25T08:22:39.241Z,4.30
2023-05-25T08:23:39.152Z,4.70
2023-05-25T08:24:39.164Z,5.20
2023-05-25T08:25:39.175Z,5.80
2023-05-25T08:26:53.230Z,4.20
2023-05-25T08:27:39.213Z,4.60
2023-05-25T08:28:39.424Z,5.00
2023-05-25T08:29:39.229Z,4.30
2023-05-25T08:30:39.277Z,5.40
2023-05-25T08:31:39.294Z,5.30
2023-05-25T08:32:39.418Z,5.40
2023-05-25T08:33:39.316Z,5.00
2023-05-25T08:34:39.402Z,5.50
2023-05-25T08:35:39.325Z,6.50
2023-05-25T08:36:39.317Z,5.50
2023-05-25T08:37:39.340Z,5.10
2023-05-25T08:38:39.354Z,5.00
2023-05-25T08:39:39.365Z,4.90
2023-05-25T08:40:39.580Z,5.40
2023-05-25T08:41:42.103Z,4.80
2023-05-25T08:42:39.408Z,4.40
2023-05-25T08:43:39.409Z,4.70
2023-05-25T08:44:39.435Z,4.70
2023-05-25T08:45:43.673Z,5.00
2023-05-25T08:46:39.574Z,4.30
2023-05-25T08:47:39.486Z,4.00
2023-05-25T08:48:42.317Z,5.30
2023-05-25T08:49:39.555Z,4.10
2023-05-25T08:50:39.501Z,4.80
2023-05-25T08:51:39.614Z,4.40
2023-05-25T08:52:39.528Z,4.50
2023-05-25T08:53:39.550Z,4.60
2023-05-25T08:54:39.555Z,5.20
2023-05-25T08:55:39.573Z,4.00
2023-05-25T08:56:39.687Z,6.00
2023-05-25T08:57:39.619Z,4.50
2023-05-25T08:58:39.622Z,4.90
2023-05-25T08:59:39.618Z,5.20
2023-05-25T09:00:39.629Z,4.20
2023-05-25T09:01:39.662Z,5.80
2023-05-25T09:02:39.675Z,4.50
2023-05-25T09:03:39.757Z,4.10
2023-05-25T09:04:39.697Z,4.10
2023-05-25T09:05:39.707Z,4.90
2023-05-25T09:06:39.817Z,5.00
2023-05-25T09:07:39.732Z,5.10
2023-05-25T09:08:39.737Z,4.80
2023-05-25T09:09:39.821Z,4.30
2023-05-25T09:10:39.763Z,4.10
2023-05-25T09:11:41.204Z,5.10
2023-05-25T09:12:39.924Z,4.60
2023-05-25T09:13:39.824Z,6.20
2023-05-25T09:14:39.836Z,4.40
2023-05-25T09:15:39.832Z,4.20
2023-05-25T09:16:39.893Z,4.70
2023-05-25T09:17:40.016Z,4.30
2023-05-25T09:18:39.875Z,4.20
2023-05-25T09:19:39.887Z,4.80
2023-05-25T09:20:39.958Z,4.00
2023-05-25T09:21:39.916Z,4.20
2023-05-25T09:22:39.935Z,3.90
2023-05-25T09:23:39.942Z,4.30
2023-05-25T09:24:39.960Z,4.10
2023-05-25T09:25:39.969Z,4.40
2023-05-25T09:26:39.984Z,3.90
2023-05-25T09:27:40.010Z,3.80
2023-05-25T09:28:40.004Z,4.40
2023-05-25T09:29:40.144Z,4.60
2023-05-25T09:30:40.036Z,3.60
2023-05-25T09:31:40.121Z,4.40
2023-05-25T09:32:40.084Z,4.00
2023-05-25T09:33:40.073Z,4.20
2023-05-25T09:34:40.181Z,4.90
2023-05-25T09:35:40.113Z,4.60
2023-05-25T09:36:40.195Z,4.30
2023-05-25T09:37:40.378Z,4.80
2023-05-25T09:38:40.450Z,3.70
2023-05-25T09:39:40.240Z,4.10
2023-05-25T09:40:40.164Z,4.60
2023-05-25T09:41:40.184Z,3.70
2023-05-25T09:42:40.210Z,3.80
2023-05-25T09:43:44.958Z,4.10
2023-05-25T09:44:40.217Z,5.30
2023-05-25T09:45:40.256Z,4.80
2023-05-25T09:46:40.452Z,4.00
2023-05-25T09:47:40.283Z,3.90
2023-05-25T09:48:40.276Z,3.80
2023-05-25T09:49:40.294Z,3.70
2023-05-25T09:50:40.303Z,3.90
2023-05-25T09:51:40.319Z,3.70
2023-05-25T09:52:40.428Z,3.60
2023-05-25T09:53:40.339Z,3.40
2023-05-25T09:54:40.350Z,4.30
2023-05-25T09:55:51.968Z,3.50
2023-05-25T09:56:40.382Z,4.10
2023-05-25T09:57:40.388Z,4.50
2023-05-25T09:58:40.398Z,3.80
2023-05-25T09:59:40.417Z,4.70
2023-05-25T10:00:40.430Z,4.80
2023-05-25T10:01:41.906Z,3.80
2023-05-25T10:02:40.513Z,3.30
2023-05-25T10:03:43.814Z,3.30
2023-05-25T10:04:40.630Z,4.10
2023-05-25T10:05:40.495Z,3.60
2023-05-25T10:06:40.501Z,4.90
2023-05-25T10:07:40.518Z,3.50
2023-05-25T10:08:40.534Z,3.50
2023-05-25T10:09:40.536Z,3.80
2023-05-25T10:10:40.561Z,3.10
2023-05-25T10:11:40.574Z,3.50
2023-05-25T10:12:40.593Z,3.50
2023-05-25T10:13:40.592Z,3.50
2023-05-25T10:14:40.610Z,4.20
2023-05-25T10:15:40.632Z,5.50
2023-05-25T10:16:40.642Z,4.70
2023-05-25T10:17:40.692Z,4.20
2023-05-25T10:18:40.661Z,4.00
2023-05-25T10:19:40.675Z,3.70
2023-05-25T10:20:40.730Z,3.50
2023-05-25T10:21:40.703Z,4.00
2023-05-25T10:22:40.716Z,4.00
2023-05-25T10:23:40.730Z,3.80
2023-05-25T10:24:40.738Z,4.10
2023-05-25T10:25:40.750Z,5.20
2023-05-25T10:26:40.767Z,3.60
2023-05-25T10:27:40.875Z,3.50
2023-05-25T10:28:40.798Z,4.40
2023-05-25T10:29:40.811Z,3.50
2023-05-25T10:30:40.819Z,3.90
2023-05-25T10:31:40.831Z,3.80
2023-05-25T10:32:40.902Z,3.60
2023-05-25T10:33:40.976Z,4.80
2023-05-25T10:34:40.876Z,3.90
2023-05-25T10:35:56.225Z,5.10
2023-05-25T10:36:40.895Z,3.30
2023-05-25T10:37:40.912Z,3.60
2023-05-25T10:38:40.957Z,5.50
2023-05-25T10:39:41.034Z,3.40
2023-05-25T10:40:40.948Z,4.40
2023-05-25T10:41:40.954Z,3.60
2023-05-25T10:42:40.967Z,3.90
2023-05-25T10:43:41.058Z,3.70
2023-05-25T10:44:41.010Z,3.90
2023-05-25T10:45:41.005Z,3.60
2023-05-25T10:46:41.069Z,4.00
2023-05-25T10:47:41.077Z,5.30
2023-05-25T10:48:41.051Z,3.60
2023-05-25T10:49:41.091Z,3.30
2023-05-25T10:50:41.880Z,3.80
2023-05-25T10:51:41.089Z,4.10
2023-05-25T10:52:41.104Z,4.00
2023-05-25T10:53:41.114Z,4.20
2023-05-25T10:54:41.128Z,4.40
2023-05-25T10:55:41.138Z,3.10
2023-05-25T10:56:41.157Z,3.90
2023-05-25T10:57:41.261Z,4.40
2023-05-25T10:58:41.172Z,4.00
2023-05-25T10:59:41.186Z,3.70
2023-05-25T11:00:41.310Z,3.60
2023-05-25T11:01:41.352Z,3.60
2023-05-25T11:02:41.270Z,4.30
2023-05-25T11:03:41.358Z,3.30
2023-05-25T11:04:41.345Z,4.20
2023-05-25T11:05:41.284Z,3.50
2023-05-25T11:06:41.282Z,4.60
2023-05-25T11:07:41.287Z,3.40
2023-05-25T11:08:41.304Z,3.60
2023-05-25T11:09:41.414Z,3.70
2023-05-25T11:10:41.335Z,3.90
2023-05-25T11:11:41.337Z,3.90
2023-05-25T11:12:41.354Z,4.20
2023-05-25T11:13:41.580Z,4.20
2023-05-25T11:14:41.489Z,3.80
2023-05-25T11:15:41.482Z,2.60
2023-05-25T11:16:41.434Z,4.10
2023-05-25T11:17:41.444Z,3.50
2023-05-25T11:18:41.453Z,3.20
2023-05-25T11:19:41.450Z,2.80
2023-05-25T11:20:41.537Z,3.80
2023-05-25T11:21:41.494Z,3.90
2023-05-25T11:22:41.484Z,2.90
2023-05-25T11:23:41.513Z,3.00
2023-05-25T11:24:41.618Z,3.40
2023-05-25T11:25:41.570Z,2.90
2023-05-25T11:26:41.559Z,3.30
2023-05-25T11:27:41.568Z,4.70
2023-05-25T11:28:41.565Z,4.10
2023-05-25T11:29:41.596Z,3.90
2023-05-25T11:30:41.670Z,3.40
2023-05-25T11:31:43.705Z,4.40
2023-05-25T11:32:41.635Z,3.50
2023-05-25T11:33:41.630Z,2.90
2023-05-25T11:34:41.652Z,3.90
2023-05-25T11:35:41.689Z,3.90
2023-05-25T11:36:41.695Z,3.50
2023-05-25T11:37:41.725Z,3.60
2023-05-25T11:38:43.557Z,4.20
2023-05-25T11:39:41.704Z,4.70
2023-05-25T11:40:41.716Z,3.80
2023-05-25T11:41:41.841Z,3.40
2023-05-25T11:42:41.748Z,4.40
2023-05-25T11:43:41.756Z,3.10
2023-05-25T11:44:41.776Z,3.60
2023-05-25T11:45:41.784Z,3.20
2023-05-25T11:46:41.938Z,3.50
2023-05-25T11:47:41.860Z,3.50
2023-05-25T11:48:41.822Z,4.20
2023-05-25T11:49:41.958Z,3.20
2023-05-25T11:50:41.855Z,4.10
2023-05-25T11:51:41.869Z,3.50
2023-05-25T11:52:41.990Z,3.20
2023-05-25T11:53:41.920Z,2.60
2023-05-25T11:54:41.930Z,2.90
2023-05-25T11:55:42.425Z,2.90
2023-05-25T11:56:42.004Z,3.00
2023-05-25T11:57:41.954Z,3.30
2023-05-25T11:58:42.059Z,3.50
2023-05-25T11:59:41.966Z,3.30
2023-05-25T12:00:42.229Z,3.00
2023-05-25T12:01:41.994Z,3.40
2023-05-25T12:02:42.130Z,3.90
2023-05-25T12:03:42.069Z,3.20
2023-05-25T12:04:42.203Z,4.10
2023-05-25T12:05:42.082Z,3.00
2023-05-25T12:06:42.068Z,2.90
2023-05-25T12:07:42.087Z,3.90
2023-05-25T12:08:42.085Z,3.60
2023-05-25T12:09:42.126Z,2.90
2023-05-25T12:10:42.201Z,3.70
2023-05-25T12:11:42.123Z,3.50
2023-05-25T12:12:42.154Z,2.80
2023-05-25T12:13:42.142Z,3.30
2023-05-25T12:14:42.153Z,3.00
2023-05-25T12:15:42.261Z,2.90
2023-05-25T12:16:42.319Z,3.00
2023-05-25T12:17:42.217Z,3.30
2023-05-25T12:18:42.215Z,3.00
2023-05-25T12:19:42.232Z,2.80
2023-05-25T12:20:42.505Z,3.80
2023-05-25T12:21:42.242Z,3.80
2023-05-25T12:22:42.263Z,3.20
2023-05-25T12:23:42.266Z,2.50
2023-05-25T12:24:42.298Z,3.80
2023-05-25T12:25:50.245Z,3.30
2023-05-25T12:26:42.308Z,2.30
2023-05-25T12:27:42.422Z,3.20
2023-05-25T12:28:42.342Z,3.20
2023-05-25T12:29:42.349Z,2.60
2023-05-25T12:30:42.389Z,3.40
2023-05-25T12:31:42.381Z,4.20
2023-05-25T12:32:42.423Z,3.30
2023-05-25T12:33:42.507Z,3.20
2023-05-25T12:34:42.421Z,3.30
2023-05-25T12:35:42.578Z,2.50
2023-05-25T12:36:42.446Z,3.10
2023-05-25T12:37:42.461Z,4.50
2023-05-25T12:38:42.473Z,3.10
2023-05-25T12:39:42.485Z,3.50
2023-05-25T12:40:42.632Z,4.20
2023-05-25T12:41:42.542Z,3.80
2023-05-25T12:42:42.554Z,2.60
2023-05-25T12:43:42.530Z,2.50
2023-05-25T12:44:42.558Z,3.40
2023-05-25T12:45:42.798Z,4.00
2023-05-25T12:46:42.617Z,3.00
2023-05-25T12:47:42.620Z,2.90
2023-05-25T12:48:42.599Z,4.00
2023-05-25T12:49:42.615Z,2.90
2023-05-25T12:50:42.900Z,2.80
2023-05-25T12:51:42.752Z,3.60
2023-05-25T12:52:42.646Z,4.30
2023-05-25T12:53:42.660Z,3.00
2023-05-25T12:54:42.685Z,3.70
2023-05-25T12:55:42.685Z,3.60
2023-05-25T12:56:42.798Z,4.30
2023-05-25T12:57:42.736Z,2.90
2023-05-25T12:58:42.728Z,3.60
2023-05-25T12:59:42.749Z,3.10
2023-05-25T13:00:43.181Z,4.10
2023-05-25T13:01:42.804Z,3.60
2023-05-25T13:02:42.830Z,3.20
2023-05-25T13:03:42.789Z,3.10
2023-05-25T13:04:42.805Z,3.50
2023-05-25T13:05:42.859Z,3.80
2023-05-25T13:06:42.851Z,2.50
2023-05-25T13:07:42.849Z,3.80
2023-05-25T13:08:42.862Z,3.40
2023-05-25T13:09:42.974Z,3.30
2023-05-25T13:10:42.960Z,3.50
2023-05-25T13:11:42.899Z,3.30
2023-05-25T13:12:42.926Z,3.40
2023-05-25T13:13:42.947Z,3.60
2023-05-25T13:14:43.066Z,3.60
2023-05-25T13:15:42.947Z,3.30
2023-05-25T13:16:42.997Z,3.10
2023-05-25T13:17:43.017Z,4.00
2023-05-25T13:18:42.986Z,2.80